createdAt,value
2017-12-26T00:00:04.745Z,3.73
2017-12-26T00:02:32.345Z,3.90
2017-12-26T00:04:59.920Z,4.00
2017-12-26T00:07:34.423Z,3.90
2017-12-26T00:10:01.970Z,3.60
2017-12-26T00:12:29.525Z,4.07
2017-12-26T00:14:57.092Z,3.67
2017-12-26T00:17:31.360Z,3.83
2017-12-26T00:19:59.691Z,3.53
2017-12-26T00:22:27.250Z,3.60
2017-12-26T00:24:54.850Z,3.53
2017-12-26T00:27:28.362Z,3.57
2017-12-26T00:29:56.670Z,3.40
2017-12-26T00:32:24.373Z,3.97
2017-12-26T00:34:51.961Z,4.23
2017-12-26T00:37:27.192Z,4.03
2017-12-26T00:39:55.243Z,4.17
2017-12-26T00:42:22.807Z,4.33
2017-12-26T00:44:50.360Z,4.17
2017-12-26T00:47:19.857Z,4.80
2017-12-26T00:49:47.418Z,4.10
2017-12-26T00:52:14.993Z,4.60
2017-12-26T00:54:42.541Z,4.10
2017-12-26T00:57:10.126Z,4.80
2017-12-26T00:59:37.729Z,4.67
2017-12-26T01:02:06.058Z,4.30
2017-12-26T01:04:33.594Z,4.70
2017-12-26T01:07:07.316Z,4.80
2017-12-26T01:09:35.496Z,4.90
2017-12-26T01:12:03.071Z,4.83
2017-12-26T01:14:30.640Z,5.20
2017-12-26T01:17:04.078Z,5.77
2017-12-26T01:19:33.146Z,4.97
2017-12-26T01:22:00.700Z,5.33
2017-12-26T01:24:28.236Z,5.30
2017-12-26T01:27:08.653Z,5.77
2017-12-26T01:29:36.985Z,5.60
2017-12-26T01:32:04.533Z,5.60
2017-12-26T01:34:32.121Z,6.03
2017-12-26T01:37:16.233Z,6.07
2017-12-26T01:39:43.815Z,5.90
2017-12-26T01:42:11.369Z,6.57
2017-12-26T01:44:38.939Z,6.23
2017-12-26T01:47:11.666Z,6.60
2017-12-26T01:49:39.244Z,6.13
2017-12-26T01:52:07.580Z,6.40
2017-12-26T01:54:35.884Z,6.43
2017-12-26T01:57:08.144Z,6.83
2017-12-26T01:59:35.691Z,6.43
2017-12-26T02:02:03.386Z,5.97
2017-12-26T02:04:31.028Z,7.00
2017-12-26T02:07:08.533Z,6.67
2017-12-26T02:09:36.162Z,7.20
2017-12-26T02:12:03.677Z,7.53
2017-12-26T02:14:31.997Z,7.10
2017-12-26T02:16:59.571Z,6.93
2017-12-26T02:19:27.131Z,6.47
2017-12-26T02:21:54.736Z,8.20
2017-12-26T02:24:23.081Z,8.27
2017-12-26T02:26:56.577Z,7.97
2017-12-26T02:29:24.156Z,7.27
2017-12-26T02:31:52.514Z,9.03
2017-12-26T02:34:20.084Z,6.70
2017-12-26T02:36:47.654Z,7.70
2017-12-26T02:39:15.202Z,7.73
2017-12-26T02:41:42.798Z,7.40
2017-12-26T02:44:10.346Z,7.40
2017-12-26T02:46:38.871Z,6.60
2017-12-26T02:49:06.444Z,8.50
2017-12-26T02:51:35.706Z,8.40
2017-12-26T02:54:03.235Z,8.10
2017-12-26T02:56:31.810Z,7.30
2017-12-26T02:58:59.342Z,6.70
2017-12-26T03:01:26.871Z,7.57
2017-12-26T03:03:54.425Z,11.37
2017-12-26T03:06:29.787Z,7.87
2017-12-26T03:08:58.113Z,6.47
2017-12-26T03:11:25.648Z,7.23
2017-12-26T03:13:53.992Z,7.17
2017-12-26T03:16:21.548Z,7.90
2017-12-26T03:18:49.080Z,7.47
2017-12-26T03:21:16.676Z,7.63
2017-12-26T03:23:44.368Z,7.07
2017-12-26T03:26:16.255Z,7.37
2017-12-26T03:28:43.814Z,7.73
2017-12-26T03:31:11.353Z,7.77
2017-12-26T03:33:39.727Z,7.70
2017-12-26T03:36:08.271Z,8.53
2017-12-26T03:38:35.810Z,8.00
2017-12-26T03:41:03.352Z,8.37
2017-12-26T03:43:30.947Z,8.43
2017-12-26T03:46:00.008Z,7.87
2017-12-26T03:48:27.560Z,7.83
2017-12-26T03:50:55.915Z,8.83
2017-12-26T03:53:23.461Z,8.30
2017-12-26T03:55:50.989Z,9.03
2017-12-26T03:58:37.151Z,9.20
2017-12-26T04:01:04.682Z,8.63
2017-12-26T04:03:32.212Z,8.83
2017-12-26T04:05:59.779Z,9.57
2017-12-26T04:08:27.338Z,9.87
2017-12-26T04:10:54.880Z,9.50
2017-12-26T04:13:22.446Z,9.70
2017-12-26T04:15:50.693Z,9.43
2017-12-26T04:18:30.860Z,9.37
2017-12-26T04:20:58.396Z,9.87
2017-12-26T04:23:25.957Z,9.30
2017-12-26T04:25:53.537Z,8.90
2017-12-26T04:28:21.167Z,8.50
2017-12-26T04:30:48.723Z,8.73
2017-12-26T04:33:16.922Z,8.60
2017-12-26T04:35:44.463Z,8.57
2017-12-26T04:38:23.465Z,7.93
2017-12-26T04:40:51.019Z,8.17
2017-12-26T04:43:18.563Z,7.67
2017-12-26T04:45:46.965Z,6.97
2017-12-26T04:48:29.524Z,7.50
2017-12-26T04:50:57.143Z,7.17
2017-12-26T04:53:24.730Z,7.63
2017-12-26T04:55:52.267Z,6.77
2017-12-26T04:58:24.272Z,7.00
2017-12-26T05:00:51.806Z,7.20
2017-12-26T05:03:19.405Z,6.67
2017-12-26T05:05:47.571Z,6.93
2017-12-26T05:08:15.117Z,7.07
2017-12-26T05:10:42.705Z,6.93
2017-12-26T05:13:11.001Z,6.43
2017-12-26T05:15:39.327Z,7.10
2017-12-26T05:18:11.648Z,6.80
2017-12-26T05:20:39.195Z,7.57
2017-12-26T05:23:06.765Z,6.73
2017-12-26T05:25:34.335Z,6.57
2017-12-26T05:28:12.280Z,6.90
2017-12-26T05:30:39.847Z,7.73
2017-12-26T05:33:07.380Z,7.87
2017-12-26T05:35:34.918Z,6.53
2017-12-26T05:38:08.100Z,6.90
2017-12-26T05:40:36.362Z,6.93
2017-12-26T05:43:03.952Z,6.53
2017-12-26T05:45:31.516Z,6.70
2017-12-26T05:47:59.098Z,6.23
2017-12-26T05:50:27.411Z,6.83
2017-12-26T05:52:54.982Z,6.20
2017-12-26T05:55:22.511Z,6.83
2017-12-26T05:57:50.075Z,6.83
2017-12-26T06:00:17.639Z,7.67
2017-12-26T06:02:45.181Z,6.43
2017-12-26T06:05:13.493Z,6.13
2017-12-26T06:07:41.137Z,5.63
2017-12-26T06:10:09.433Z,5.93
2017-12-26T06:12:36.978Z,5.97
2017-12-26T06:15:04.642Z,5.43
2017-12-26T06:17:32.200Z,4.97
2017-12-26T06:20:00.522Z,5.70
2017-12-26T06:22:28.132Z,5.30
2017-12-26T06:24:56.439Z,5.30
2017-12-26T06:27:47.288Z,5.40
2017-12-26T06:30:16.178Z,4.97
2017-12-26T06:32:43.748Z,5.70
2017-12-26T06:35:12.015Z,5.20
2017-12-26T06:37:47.045Z,5.13
2017-12-26T06:40:15.731Z,4.93
2017-12-26T06:42:45.249Z,5.00
2017-12-26T06:45:12.827Z,5.03
2017-12-26T06:47:40.367Z,4.83
2017-12-26T06:50:07.924Z,5.03
2017-12-26T06:52:35.509Z,4.70
2017-12-26T06:55:03.095Z,5.37
2017-12-26T06:57:32.416Z,5.23
2017-12-26T06:59:59.966Z,4.80
2017-12-26T07:02:28.280Z,5.30
2017-12-26T07:04:55.848Z,5.37
2017-12-26T07:07:23.432Z,4.60
2017-12-26T07:09:50.998Z,5.47
2017-12-26T07:12:18.544Z,5.57
2017-12-26T07:14:46.102Z,5.30
2017-12-26T07:17:14.237Z,5.30
2017-12-26T07:19:42.698Z,5.50
2017-12-26T07:22:16.727Z,5.70
2017-12-26T07:24:46.255Z,5.47
2017-12-26T07:27:24.371Z,5.00
2017-12-26T07:29:51.927Z,5.07
2017-12-26T07:32:19.482Z,5.57
2017-12-26T07:34:47.049Z,5.50
2017-12-26T07:40:09.148Z,5.20
2017-12-26T07:42:36.683Z,5.10
2017-12-26T07:45:04.226Z,5.20
2017-12-26T07:47:31.870Z,5.70
2017-12-26T07:50:00.184Z,5.13
2017-12-26T07:52:27.746Z,5.27
2017-12-26T07:54:55.328Z,4.97
2017-12-26T07:57:27.278Z,5.40
2017-12-26T07:59:54.831Z,5.00
2017-12-26T08:02:22.409Z,5.00
2017-12-26T08:04:49.968Z,4.90
2017-12-26T08:07:38.003Z,4.70
2017-12-26T08:10:06.445Z,5.17
2017-12-26T08:12:34.073Z,5.23
2017-12-26T08:15:01.644Z,4.53
2017-12-26T08:17:30.216Z,4.63
2017-12-26T08:19:58.509Z,4.97
2017-12-26T08:22:26.106Z,4.67
2017-12-26T08:24:53.656Z,5.10
2017-12-26T08:27:22.193Z,4.80
2017-12-26T08:29:49.788Z,5.10
2017-12-26T08:32:19.003Z,4.93
2017-12-26T08:34:47.327Z,4.90
2017-12-26T08:37:16.105Z,4.47
2017-12-26T08:39:46.705Z,4.67
2017-12-26T08:42:14.371Z,4.63
2017-12-26T08:44:42.745Z,4.77
2017-12-26T08:47:14.178Z,4.87
2017-12-26T08:49:41.759Z,5.47
2017-12-26T08:52:10.104Z,5.03
2017-12-26T08:54:37.705Z,5.30
2017-12-26T08:57:23.787Z,5.17
2017-12-26T08:59:51.375Z,5.60
2017-12-26T09:02:19.014Z,5.50
2017-12-26T09:04:51.272Z,5.30
2017-12-26T09:07:27.334Z,5.03
2017-12-26T09:09:54.896Z,5.00
2017-12-26T09:12:26.744Z,5.23
2017-12-26T09:14:54.810Z,5.27
2017-12-26T09:17:25.330Z,5.30
2017-12-26T09:19:53.308Z,4.90
2017-12-26T09:22:20.953Z,5.13
2017-12-26T09:24:48.482Z,4.63
2017-12-26T09:27:19.927Z,5.60
2017-12-26T09:29:48.210Z,5.17
2017-12-26T09:32:17.159Z,5.60
2017-12-26T09:34:45.067Z,4.57
2017-12-26T09:37:17.369Z,4.67
2017-12-26T09:39:44.985Z,4.13
2017-12-26T09:42:13.374Z,4.13
2017-12-26T09:44:42.045Z,4.53
2017-12-26T09:47:10.321Z,4.07
2017-12-26T09:49:38.024Z,4.93
2017-12-26T09:52:06.394Z,4.07
2017-12-26T09:54:33.967Z,3.83
2017-12-26T09:57:02.864Z,3.80
2017-12-26T09:59:31.218Z,3.70
2017-12-26T10:01:59.264Z,3.87
2017-12-26T10:04:26.813Z,3.93
2017-12-26T10:06:55.321Z,3.60
2017-12-26T10:09:23.157Z,3.90
2017-12-26T10:11:50.791Z,3.40
2017-12-26T10:14:18.577Z,3.73
2017-12-26T10:16:48.861Z,3.73
2017-12-26T10:19:17.331Z,3.53
2017-12-26T10:21:46.366Z,4.03
2017-12-26T10:24:15.088Z,3.10
2017-12-26T10:26:45.091Z,3.40
2017-12-26T10:29:15.509Z,3.57
2017-12-26T10:31:43.689Z,3.60
2017-12-26T10:34:12.077Z,3.83
2017-12-26T10:36:50.129Z,3.50
2017-12-26T10:39:17.724Z,3.60
2017-12-26T10:41:45.330Z,3.20
2017-12-26T10:44:12.894Z,3.40
2017-12-26T10:46:42.616Z,3.30
2017-12-26T10:49:11.516Z,3.87
2017-12-26T10:51:39.129Z,3.17
2017-12-26T10:54:07.453Z,3.47
2017-12-26T10:56:44.219Z,3.27
2017-12-26T10:59:12.565Z,3.00
2017-12-26T11:01:40.464Z,3.40
2017-12-26T11:04:08.017Z,3.33
2017-12-26T11:06:39.083Z,3.70
2017-12-26T11:09:06.714Z,3.87
2017-12-26T11:11:34.282Z,3.77
2017-12-26T11:14:01.930Z,4.10
2017-12-26T11:16:33.374Z,3.90
2017-12-26T11:19:07.038Z,3.40
2017-12-26T11:21:39.116Z,3.27
2017-12-26T11:24:11.124Z,4.10
2017-12-26T11:26:44.366Z,3.57
2017-12-26T11:29:11.890Z,3.43
2017-12-26T11:31:39.478Z,3.40
2017-12-26T11:34:07.656Z,2.90
2017-12-26T11:36:39.892Z,3.20
2017-12-26T11:39:07.487Z,3.77
2017-12-26T11:41:35.174Z,3.20
2017-12-26T11:44:02.746Z,3.50
2017-12-26T11:46:33.689Z,3.50
2017-12-26T11:49:01.411Z,3.70
2017-12-26T11:51:29.817Z,3.43
2017-12-26T11:53:58.187Z,3.43
2017-12-26T11:56:47.634Z,3.03
2017-12-26T11:59:15.541Z,3.40
2017-12-26T12:01:43.108Z,3.43
2017-12-26T12:09:57.878Z,3.43
2017-12-26T12:12:28.140Z,3.20
2017-12-26T12:14:57.079Z,3.00
2017-12-26T12:17:28.402Z,3.40
2017-12-26T12:19:55.958Z,3.10
2017-12-26T12:22:39.564Z,2.80
2017-12-26T12:25:07.198Z,2.90
2017-12-26T12:27:36.000Z,2.87
2017-12-26T12:30:04.160Z,2.93
2017-12-26T12:32:31.746Z,3.20
2017-12-26T12:35:00.188Z,3.60
2017-12-26T12:37:30.117Z,2.70
2017-12-26T12:39:57.701Z,2.60
2017-12-26T12:42:25.248Z,3.70
2017-12-26T12:44:52.846Z,3.10
2017-12-26T12:47:20.400Z,3.70
2017-12-26T12:49:48.308Z,3.90
2017-12-26T12:52:15.861Z,4.70
2017-12-26T12:54:43.448Z,3.90
2017-12-26T12:57:11.744Z,3.20
2017-12-26T12:59:39.299Z,3.40
2017-12-26T13:02:06.898Z,2.97
2017-12-26T13:04:34.466Z,3.60
2017-12-26T13:07:03.026Z,2.60
2017-12-26T13:09:30.645Z,3.10
2017-12-26T13:11:58.954Z,2.80
2017-12-26T13:14:26.484Z,2.60
2017-12-26T13:16:54.836Z,2.50
2017-12-26T13:19:24.037Z,2.50
2017-12-26T13:21:51.589Z,2.70
2017-12-26T13:24:19.140Z,2.97
2017-12-26T13:26:47.628Z,3.40
2017-12-26T13:29:15.187Z,2.93
2017-12-26T13:31:42.747Z,3.37
2017-12-26T13:34:10.372Z,2.93
2017-12-26T13:36:42.042Z,2.73
2017-12-26T13:39:09.618Z,3.17
2017-12-26T13:41:37.184Z,3.40
2017-12-26T13:44:04.809Z,2.97
2017-12-26T13:46:33.123Z,3.13
2017-12-26T13:49:00.748Z,3.80
2017-12-26T13:51:28.297Z,4.13
2017-12-26T13:53:55.878Z,3.17
2017-12-26T13:56:24.231Z,3.47
2017-12-26T13:58:51.763Z,4.33
2017-12-26T14:01:19.334Z,3.47
2017-12-26T14:03:46.980Z,3.10
2017-12-26T14:06:14.522Z,2.20
2017-12-26T14:08:42.087Z,2.50
2017-12-26T14:11:09.740Z,2.30
2017-12-26T14:13:37.305Z,2.50
2017-12-26T14:16:04.910Z,2.70
2017-12-26T14:18:32.494Z,2.80
2017-12-26T14:21:00.013Z,2.40
2017-12-26T14:23:27.550Z,2.50
2017-12-26T14:25:56.334Z,2.90
2017-12-26T14:28:26.088Z,3.53
2017-12-26T14:30:53.639Z,2.80
2017-12-26T14:33:21.225Z,2.77
2017-12-26T14:35:48.764Z,2.20
2017-12-26T14:38:16.309Z,2.80
2017-12-26T14:40:44.659Z,2.60
2017-12-26T14:43:12.977Z,2.40
2017-12-26T14:45:40.541Z,2.93
2017-12-26T14:48:09.323Z,2.80
2017-12-26T14:50:36.856Z,3.43
2017-12-26T14:53:04.436Z,2.93
2017-12-26T14:55:32.000Z,3.13
2017-12-26T14:57:59.580Z,3.10
2017-12-26T15:00:27.122Z,3.10
2017-12-26T15:02:54.716Z,3.33
2017-12-26T15:05:22.246Z,3.10
2017-12-26T15:07:49.807Z,3.20
2017-12-26T15:10:17.370Z,3.50
2017-12-26T15:12:44.901Z,3.40
2017-12-26T15:15:12.436Z,3.77
2017-12-26T15:17:40.945Z,4.00
2017-12-26T15:20:08.487Z,3.47
2017-12-26T15:22:36.051Z,2.90
2017-12-26T15:25:04.452Z,3.70
2017-12-26T15:27:31.991Z,4.67
2017-12-26T15:30:00.161Z,4.63
2017-12-26T15:32:31.220Z,2.97
2017-12-26T15:34:58.769Z,3.10
2017-12-26T15:37:27.325Z,3.27
2017-12-26T15:39:54.903Z,3.27
2017-12-26T15:42:22.460Z,3.50
2017-12-26T15:44:49.999Z,3.90
2017-12-26T15:47:17.580Z,3.70
2017-12-26T15:49:45.128Z,3.77
2017-12-26T15:52:13.424Z,3.83
2017-12-26T15:54:40.983Z,4.27
2017-12-26T15:57:08.530Z,3.90
2017-12-26T15:59:36.048Z,3.97
2017-12-26T16:02:03.603Z,3.60
2017-12-26T16:04:31.146Z,3.33
2017-12-26T16:07:09.913Z,3.63
2017-12-26T16:09:38.244Z,3.20
2017-12-26T16:12:05.795Z,3.47
2017-12-26T16:14:34.307Z,3.90
2017-12-26T16:17:02.798Z,4.03
2017-12-26T16:19:30.372Z,4.33
2017-12-26T16:21:58.745Z,4.33
2017-12-26T16:24:26.320Z,4.87
2017-12-26T16:26:55.665Z,4.50
2017-12-26T16:29:23.250Z,4.30
2017-12-26T16:31:50.826Z,5.10
2017-12-26T16:34:18.354Z,3.87
2017-12-26T16:36:47.874Z,4.40
2017-12-26T16:39:15.429Z,4.07
2017-12-26T16:41:42.998Z,4.07
2017-12-26T16:44:10.560Z,4.40
2017-12-26T16:46:38.124Z,3.60
2017-12-26T16:49:05.699Z,4.17
2017-12-26T16:51:33.283Z,4.10
2017-12-26T16:54:03.029Z,3.77
2017-12-26T16:56:31.514Z,3.73
2017-12-26T16:58:59.088Z,3.73
2017-12-26T17:01:26.700Z,3.73
2017-12-26T17:03:55.023Z,4.00
2017-12-26T17:06:24.508Z,4.20
2017-12-26T17:08:52.104Z,4.13
2017-12-26T17:11:19.656Z,3.60
2017-12-26T17:13:47.220Z,4.07
2017-12-26T17:16:15.940Z,4.30
2017-12-26T17:18:43.480Z,3.70
2017-12-26T17:21:11.077Z,4.13
2017-12-26T17:23:39.463Z,4.03
2017-12-26T17:26:07.966Z,3.47
2017-12-26T17:28:37.604Z,3.50
2017-12-26T17:31:05.127Z,3.30
2017-12-26T17:33:33.433Z,3.70
2017-12-26T17:36:01.645Z,4.00
2017-12-26T17:38:30.521Z,3.83
2017-12-26T17:40:58.061Z,3.57
2017-12-26T17:43:25.633Z,3.33
2017-12-26T17:45:53.163Z,3.10
2017-12-26T17:48:34.640Z,3.47
2017-12-26T17:51:02.225Z,3.30
2017-12-26T17:53:29.782Z,3.37
2017-12-26T17:55:58.115Z,3.63
2017-12-26T17:58:25.652Z,5.33
2017-12-26T18:00:53.186Z,3.47
2017-12-26T18:03:20.960Z,3.03
2017-12-26T18:05:48.498Z,3.40
2017-12-26T18:08:18.708Z,3.67
2017-12-26T18:10:46.283Z,2.97
2017-12-26T18:13:14.641Z,3.63
2017-12-26T18:15:42.219Z,3.20
2017-12-26T18:18:20.347Z,2.80
2017-12-26T18:20:48.635Z,2.87
2017-12-26T18:23:16.183Z,3.00
2017-12-26T18:25:43.751Z,2.80
2017-12-26T18:28:11.334Z,2.90
2017-12-26T18:30:39.637Z,2.90
2017-12-26T18:33:07.220Z,2.83
2017-12-26T18:35:34.756Z,2.60
2017-12-26T18:38:04.228Z,2.90
2017-12-26T18:40:32.686Z,3.50
2017-12-26T18:43:01.070Z,3.17
2017-12-26T18:45:28.601Z,2.97
2017-12-26T18:47:57.106Z,3.50
2017-12-26T18:50:24.632Z,2.90
2017-12-26T18:52:52.213Z,3.20
2017-12-26T18:55:19.769Z,3.40
2017-12-26T18:57:47.317Z,3.03
2017-12-26T19:00:14.885Z,3.00
2017-12-26T19:02:42.471Z,2.93
2017-12-26T19:05:10.014Z,3.53
2017-12-26T19:07:37.563Z,2.50
2017-12-26T19:10:06.494Z,3.00
2017-12-26T19:12:34.054Z,3.50
2017-12-26T19:15:01.576Z,2.77
2017-12-26T19:17:29.148Z,3.10
2017-12-26T19:19:56.724Z,3.20
2017-12-26T19:22:24.268Z,3.63
2017-12-26T19:24:51.844Z,3.37
2017-12-26T19:27:20.309Z,2.90
2017-12-26T19:29:47.830Z,2.60
2017-12-26T19:32:16.295Z,3.23
2017-12-26T19:34:44.592Z,3.00
2017-12-26T19:37:16.595Z,4.60
2017-12-26T19:39:44.140Z,3.47
2017-12-26T19:42:11.663Z,3.10
2017-12-26T19:44:40.006Z,2.87
2017-12-26T19:47:07.559Z,3.10
2017-12-26T19:49:35.094Z,3.07
2017-12-26T19:52:02.700Z,2.70
2017-12-26T19:54:30.876Z,2.80
2017-12-26T19:56:58.424Z,2.80
2017-12-26T19:59:25.992Z,3.10
2017-12-26T20:01:53.533Z,3.23
2017-12-26T20:04:21.093Z,2.87
2017-12-26T20:06:56.635Z,3.37
2017-12-26T20:09:24.187Z,3.10
2017-12-26T20:11:51.763Z,3.20
2017-12-26T20:14:19.353Z,3.27
2017-12-26T20:17:00.415Z,3.30
2017-12-26T20:19:27.983Z,3.20
2017-12-26T20:21:55.518Z,3.47
2017-12-26T20:24:23.074Z,3.37
2017-12-26T20:26:50.664Z,3.50
2017-12-26T20:29:20.057Z,4.27
2017-12-26T20:31:48.520Z,8.37
2017-12-26T20:34:16.100Z,7.57
2017-12-26T20:36:58.110Z,5.83
2017-12-26T20:39:25.668Z,4.93
2017-12-26T20:41:53.263Z,5.87
2017-12-26T20:44:20.768Z,4.53
2017-12-26T20:46:49.288Z,4.27
2017-12-26T20:49:16.824Z,4.30
2017-12-26T20:51:44.354Z,4.33
2017-12-26T20:54:12.671Z,4.00
2017-12-26T20:56:40.193Z,4.50
2017-12-26T20:59:08.507Z,3.80
2017-12-26T21:01:36.070Z,4.47
2017-12-26T21:04:03.724Z,4.90
2017-12-26T21:06:33.215Z,5.00
2017-12-26T21:09:00.836Z,4.73
2017-12-26T21:11:29.167Z,5.00
2017-12-26T21:13:56.717Z,4.43
2017-12-26T21:16:25.191Z,4.83
2017-12-26T21:18:53.474Z,4.83
2017-12-26T21:21:21.040Z,4.50
2017-12-26T21:23:49.396Z,4.50
2017-12-26T21:30:06.824Z,3.80
2017-12-26T21:32:34.358Z,4.60
2017-12-26T21:35:01.894Z,4.33
2017-12-26T21:37:44.390Z,4.20
2017-12-26T21:40:11.947Z,4.70
2017-12-26T21:42:39.499Z,4.87
2017-12-26T21:45:07.069Z,4.30
2017-12-26T21:47:45.295Z,4.50
2017-12-26T21:50:13.738Z,4.20
2017-12-26T21:52:41.335Z,3.77
2017-12-26T21:55:09.627Z,3.90
2017-12-26T21:57:39.237Z,4.27
2017-12-26T22:00:07.525Z,4.20
2017-12-26T22:02:36.155Z,4.40
2017-12-26T22:05:03.719Z,4.70
2017-12-26T22:07:34.946Z,4.37
2017-12-26T22:10:02.496Z,3.70
2017-12-26T22:12:30.825Z,3.63
2017-12-26T22:14:58.370Z,3.87
2017-12-26T22:17:33.244Z,3.50
2017-12-26T22:20:01.543Z,3.57
2017-12-26T22:22:29.090Z,3.80
2017-12-26T22:27:31.555Z,3.10
2017-12-26T22:29:59.584Z,3.13
2017-12-26T22:32:27.163Z,3.50
2017-12-26T22:34:54.783Z,3.30
2017-12-26T22:37:26.469Z,3.30
2017-12-26T22:39:54.015Z,3.53
2017-12-26T22:42:21.607Z,3.60
2017-12-26T22:44:49.875Z,3.07
2017-12-26T22:47:19.379Z,3.00
2017-12-26T22:49:47.192Z,3.60
2017-12-26T22:52:15.837Z,3.03
2017-12-26T22:54:43.433Z,3.20
2017-12-26T22:57:11.006Z,3.10
2017-12-26T22:59:38.590Z,2.90
2017-12-26T23:02:06.138Z,3.27
2017-12-26T23:04:33.748Z,3.20
2017-12-26T23:07:12.678Z,2.90
2017-12-26T23:09:40.329Z,3.13
2017-12-26T23:12:07.901Z,2.80
2017-12-26T23:14:41.132Z,2.53
2017-12-26T23:20:08.843Z,3.00
2017-12-26T23:22:36.468Z,2.83
2017-12-26T23:25:09.577Z,3.37
2017-12-26T23:27:43.669Z,2.63
2017-12-26T23:30:17.291Z,3.27
2017-12-26T23:32:50.695Z,2.90
2017-12-26T23:35:23.891Z,2.63
2017-12-26T23:37:58.004Z,2.73
2017-12-26T23:40:31.156Z,2.83
2017-12-26T23:43:04.463Z,2.97
2017-12-26T23:45:37.655Z,2.80
2017-12-26T23:48:10.937Z,2.77
2017-12-26T23:50:44.228Z,2.77
2017-12-26T23:53:29.594Z,3.00
2017-12-26T23:56:12.856Z,2.53
2017-12-26T23:58:45.950Z,2.97
